Time;durP1;ratioP1;P1;durP2;ratioP2;P2;SDS_P1;SDS_P2;PMS_P1;PMS_P2;Temp;Humidity;BMP_temperature;BMP_pressure;BME280_temperature;BME280_humidity;BME280_pressure;Samples;Min_cycle;Max_cycle;Signal;HPM_P1;HPM_P2
2022/08/16 00:02:23;;;;;;;15.13;14.23;;;19.30;99.90;;;;;;4898299;29;20455;-71
2022/08/16 00:04:50;;;;;;;15.23;14.43;;;19.30;99.90;;;;;;4898038;29;20474;-71
2022/08/16 00:07:17;;;;;;;16.73;15.70;;;19.40;99.90;;;;;;4898032;29;20845;-71
2022/08/16 00:09:43;;;;;;;16.17;15.07;;;19.40;99.90;;;;;;4898141;29;20463;-71
2022/08/16 00:12:10;;;;;;;17.80;16.57;;;19.40;99.90;;;;;;4898264;29;20455;-72
2022/08/16 00:14:37;;;;;;;17.17;16.00;;;19.40;99.90;;;;;;4898102;29;20843;-72
2022/08/16 00:17:04;;;;;;;19.30;17.70;;;19.30;99.90;;;;;;4897926;29;20462;-71
2022/08/16 00:19:34;;;;;;;17.67;16.57;;;19.30;99.90;;;;;;4897980;29;20455;-72
2022/08/16 00:22:01;;;;;;;17.77;16.47;;;19.20;99.90;;;;;;4898003;29;20866;-71
2022/08/16 00:24:29;;;;;;;17.00;15.90;;;19.20;99.90;;;;;;4897912;29;20456;-71
2022/08/16 00:26:56;;;;;;;16.50;15.60;;;19.10;99.90;;;;;;4897928;29;20499;-71
2022/08/16 00:29:22;;;;;;;16.80;15.80;;;19.10;99.90;;;;;;4897904;29;20474;-72
2022/08/16 00:31:51;;;;;;;16.97;15.93;;;19.00;99.90;;;;;;4897763;29;20455;-71
2022/08/16 00:34:19;;;;;;;17.87;16.73;;;19.10;99.90;;;;;;4897666;29;20989;-71
2022/08/16 00:36:47;;;;;;;16.90;15.80;;;19.10;99.90;;;;;;4897790;29;20455;-72
2022/08/16 00:39:15;;;;;;;16.20;15.20;;;19.10;99.90;;;;;;4897606;29;20495;-72
2022/08/16 00:41:42;;;;;;;16.97;15.83;;;19.20;99.90;;;;;;4897733;29;20486;-72
2022/08/16 00:44:10;;;;;;;19.00;17.77;;;19.20;99.90;;;;;;4897770;29;20800;-72
2022/08/16 00:46:41;;;;;;;17.37;16.47;;;19.20;99.90;;;;;;4897507;29;20495;-72
2022/08/16 00:49:11;;;;;;;17.77;16.23;;;19.20;99.90;;;;;;4897613;29;20499;-73
2022/08/16 00:51:38;;;;;;;17.20;16.00;;;19.10;99.90;;;;;;4897621;29;20463;-72
2022/08/16 00:54:07;;;;;;;16.83;15.73;;;19.00;99.90;;;;;;4897406;29;20460;-72
2022/08/16 00:56:36;;;;;;;16.83;15.80;;;18.90;99.90;;;;;;4897262;29;20451;-72
2022/08/16 00:59:04;;;;;;;16.50;15.60;;;18.80;99.90;;;;;;4897272;29;20459;-72
2022/08/16 01:01:31;;;;;;;16.20;15.30;;;18.70;99.90;;;;;;4897214;29;20455;-72
2022/08/16 01:04:00;;;;;;;17.13;16.03;;;18.70;99.90;;;;;;4897047;29;20961;-72
2022/08/16 01:06:27;;;;;;;18.07;16.87;;;18.60;99.90;;;;;;4897078;29;20527;-72
2022/08/16 01:08:56;;;;;;;17.60;16.40;;;18.60;99.90;;;;;;4896871;29;20455;-72
2022/08/16 01:11:26;;;;;;;17.03;16.03;;;18.60;99.90;;;;;;4897100;29;20460;-71
2022/08/16 01:13:58;;;;;;;17.53;16.60;;;18.50;99.90;;;;;;4897220;29;20470;-72
2022/08/16 01:16:27;;;;;;;17.13;16.10;;;18.40;99.90;;;;;;4897164;29;20467;-72
2022/08/16 01:18:59;;;;;;;17.80;16.60;;;18.40;99.90;;;;;;4897052;29;20455;-72
2022/08/16 01:21:32;;;;;;;21.97;20.23;;;18.40;99.90;;;;;;4897012;29;20451;-71
2022/08/16 01:24:13;;;;;;;21.67;20.07;;;18.40;99.90;;;;;;4896985;29;20950;-72
2022/08/16 01:26:42;;;;;;;20.17;18.70;;;18.40;99.90;;;;;;4896988;29;20502;-71
2022/08/16 01:29:17;;;;;;;19.43;18.00;;;18.30;99.90;;;;;;4897023;29;20559;-71
2022/08/16 01:31:44;;;;;;;19.87;18.40;;;18.30;99.90;;;;;;4896572;29;20458;-72
2022/08/16 01:34:12;;;;;;;18.50;17.10;;;18.30;99.90;;;;;;4896806;29;20459;-72
2022/08/16 01:36:38;;;;;;;18.17;16.97;;;18.40;99.90;;;;;;4896779;29;20459;-72
2022/08/16 01:39:12;;;;;;;18.73;17.43;;;18.30;99.90;;;;;;4896664;29;20462;-72
2022/08/16 01:41:39;;;;;;;18.77;17.47;;;18.20;99.90;;;;;;4896631;29;20451;-72
2022/08/16 01:44:05;;;;;;;18.13;16.93;;;18.20;99.90;;;;;;4896482;29;20455;-72
2022/08/16 01:46:36;;;;;;;18.50;17.20;;;18.10;99.90;;;;;;4896326;29;20491;-72
2022/08/16 01:49:08;;;;;;;17.27;16.20;;;18.10;99.90;;;;;;4896443;29;20451;-72
2022/08/16 01:51:35;;;;;;;17.77;16.40;;;18.00;99.90;;;;;;4896406;29;20559;-71
2022/08/16 01:54:02;;;;;;;17.70;16.60;;;18.00;99.90;;;;;;4896258;29;20470;-71
2022/08/16 01:56:31;;;;;;;19.00;17.90;;;18.00;99.90;;;;;;4896237;29;20467;-71
2022/08/16 01:58:59;;;;;;;17.97;16.90;;;18.00;99.90;;;;;;4896308;29;20482;-72
2022/08/16 02:01:27;;;;;;;18.10;17.00;;;18.10;99.90;;;;;;4896253;29;20470;-71
2022/08/16 02:03:54;;;;;;;17.57;16.50;;;18.00;99.90;;;;;;4896135;29;20466;-71
2022/08/16 02:06:20;;;;;;;18.27;17.13;;;18.00;99.90;;;;;;4895909;29;20498;-71
2022/08/16 02:08:47;;;;;;;18.53;17.53;;;18.00;99.90;;;;;;4896143;29;20950;-71
2022/08/16 02:11:15;;;;;;;18.80;17.67;;;18.00;99.90;;;;;;4896034;29;20456;-70
2022/08/16 02:13:44;;;;;;;18.13;16.90;;;18.00;99.90;;;;;;4896031;29;20467;-71
2022/08/16 02:16:11;;;;;;;18.70;17.50;;;17.90;99.90;;;;;;4896092;29;20455;-71
2022/08/16 02:18:39;;;;;;;19.77;18.43;;;18.00;99.90;;;;;;4896101;29;20468;-70
2022/08/16 02:21:07;;;;;;;20.07;18.77;;;18.00;99.90;;;;;;4895406;29;20451;-71
2022/08/16 02:23:36;;;;;;;17.87;16.67;;;18.00;99.90;;;;;;4895881;29;20455;-71
2022/08/16 02:26:04;;;;;;;18.30;17.20;;;18.00;99.90;;;;;;4895691;29;20463;-71
2022/08/16 02:28:31;;;;;;;18.03;16.70;;;18.10;99.90;;;;;;4895876;29;20459;-71
2022/08/16 02:31:04;;;;;;;19.50;18.40;;;18.20;99.90;;;;;;4895810;29;20466;-71
2022/08/16 02:33:31;;;;;;;19.33;18.03;;;18.20;99.90;;;;;;4895835;29;20483;-71
2022/08/16 02:35:58;;;;;;;18.00;17.00;;;18.30;99.90;;;;;;4895711;29;20459;-71
2022/08/16 02:38:25;;;;;;;18.27;16.93;;;18.30;99.90;;;;;;4896046;29;20969;-71
2022/08/16 02:40:52;;;;;;;18.73;17.70;;;18.30;99.90;;;;;;4895886;29;20459;-71
2022/08/16 02:43:18;;;;;;;17.93;16.73;;;18.20;99.90;;;;;;4895727;29;20466;-70
2022/08/16 02:45:45;;;;;;;18.40;17.30;;;18.20;99.90;;;;;;4895544;29;20961;-70
2022/08/16 02:48:13;;;;;;;18.93;17.70;;;18.20;99.90;;;;;;4895546;29;20498;-70
2022/08/16 02:50:40;;;;;;;18.40;17.50;;;18.20;99.90;;;;;;4895898;29;20821;-71
2022/08/16 02:53:07;;;;;;;18.40;17.40;;;18.20;99.90;;;;;;4895731;29;20514;-70
2022/08/16 02:55:34;;;;;;;19.20;18.00;;;18.30;99.90;;;;;;4895661;29;20462;-71
2022/08/16 02:58:00;;;;;;;17.87;16.87;;;18.30;99.90;;;;;;4895557;29;20455;-71
2022/08/16 03:00:27;;;;;;;20.43;19.10;;;18.30;99.90;;;;;;4895496;29;20459;-71
2022/08/16 03:02:55;;;;;;;18.47;17.37;;;18.10;99.90;;;;;;4895733;29;20459;-71
2022/08/16 03:05:24;;;;;;;20.50;19.20;;;18.20;99.90;;;;;;4895455;29;20494;-71
2022/08/16 03:07:51;;;;;;;21.37;19.77;;;18.10;99.90;;;;;;4895606;29;20838;-72
2022/08/16 03:10:18;;;;;;;22.00;20.50;;;18.20;99.90;;;;;;4895571;29;20466;-71
2022/08/16 03:12:45;;;;;;;21.47;19.97;;;18.20;99.90;;;;;;4895546;29;20463;-71
2022/08/16 03:15:14;;;;;;;19.17;17.87;;;18.10;99.90;;;;;;4895633;29;20478;-71
2022/08/16 03:17:42;;;;;;;19.37;18.20;;;18.10;99.90;;;;;;4895583;29;20471;-72
2022/08/16 03:20:11;;;;;;;20.03;18.23;;;18.00;99.90;;;;;;4895552;29;20467;-72
2022/08/16 03:22:39;;;;;;;18.80;17.40;;;18.00;99.90;;;;;;4895406;29;20458;-72
2022/08/16 03:25:09;;;;;;;19.47;18.47;;;17.90;99.90;;;;;;4895422;29;20462;-72
2022/08/16 03:27:37;;;;;;;20.10;18.90;;;17.90;99.90;;;;;;4895324;29;20491;-71
2022/08/16 03:30:10;;;;;;;19.10;18.00;;;17.90;99.90;;;;;;4895279;29;20561;-71
2022/08/16 03:32:37;;;;;;;20.63;19.20;;;17.80;99.90;;;;;;4898762;29;20470;-71
2022/08/16 03:35:04;;;;;;;17.90;16.70;;;17.80;99.90;;;;;;4898910;29;20946;-70
2022/08/16 03:37:31;;;;;;;20.33;19.10;;;17.80;99.90;;;;;;4898814;29;20447;-71
2022/08/16 03:39:59;;;;;;;19.50;18.40;;;17.80;99.90;;;;;;4898808;29;20467;-71
2022/08/16 03:42:26;;;;;;;19.87;18.67;;;17.80;99.90;;;;;;4898838;29;20463;-72
2022/08/16 03:44:53;;;;;;;20.83;19.53;;;17.70;99.90;;;;;;4898845;29;20823;-70
2022/08/16 03:47:21;;;;;;;18.40;17.30;;;17.70;99.90;;;;;;4898657;29;20495;-70
2022/08/16 03:49:48;;;;;;;19.70;18.13;;;17.70;99.90;;;;;;4898629;29;20495;-70
2022/08/16 03:52:15;;;;;;;18.80;17.50;;;17.70;99.90;;;;;;4898485;29;20470;-70
2022/08/16 03:54:42;;;;;;;19.37;18.13;;;17.60;99.90;;;;;;4898473;29;20463;-70
2022/08/16 03:57:10;;;;;;;17.83;16.90;;;17.60;99.90;;;;;;4898713;29;20471;-70
2022/08/16 03:59:36;;;;;;;18.53;17.43;;;17.60;99.90;;;;;;4898019;29;20938;-70
2022/08/16 04:02:04;;;;;;;18.37;17.10;;;17.50;99.90;;;;;;4898362;29;20833;-70
2022/08/16 04:04:31;;;;;;;17.33;16.23;;;17.50;99.90;;;;;;4898274;29;20475;-70
2022/08/16 04:06:57;;;;;;;18.77;17.50;;;17.40;99.90;;;;;;4898093;29;21005;-70
2022/08/16 04:09:24;;;;;;;19.97;18.33;;;17.40;99.90;;;;;;4898459;29;20455;-70
2022/08/16 04:11:51;;;;;;;19.10;17.60;;;17.40;99.90;;;;;;4898291;29;20451;-71
2022/08/16 04:14:19;;;;;;;20.13;18.60;;;17.40;99.90;;;;;;4898117;29;20729;-72
2022/08/16 04:16:45;;;;;;;19.97;18.73;;;17.40;99.90;;;;;;4898224;29;20486;-72
2022/08/16 04:19:12;;;;;;;18.57;17.40;;;;;;;;;;4898057;29;20455;-72
2022/08/16 04:21:39;;;;;;;19.33;18.23;;;17.30;99.90;;;;;;4898160;29;20456;-72
2022/08/16 04:24:06;;;;;;;19.60;18.00;;;17.30;99.90;;;;;;4898046;29;20478;-72
2022/08/16 04:26:33;;;;;;;21.07;19.67;;;17.40;99.90;;;;;;4897880;29;20455;-72
2022/08/16 04:29:00;;;;;;;18.40;17.30;;;17.50;99.90;;;;;;4897910;29;20461;-72
2022/08/16 04:31:28;;;;;;;20.60;19.10;;;17.50;99.90;;;;;;4897799;29;20451;-72
2022/08/16 04:33:58;;;;;;;19.73;18.27;;;17.60;99.90;;;;;;4898055;29;20463;-72
2022/08/16 04:36:25;;;;;;;20.20;18.87;;;17.60;99.90;;;;;;4897940;29;20957;-72
2022/08/16 04:38:51;;;;;;;19.60;18.50;;;17.70;99.90;;;;;;4897829;29;20452;-72
2022/08/16 04:41:18;;;;;;;19.37;18.10;;;17.80;99.90;;;;;;4897709;29;20459;-72
2022/08/16 04:43:45;;;;;;;20.70;19.50;;;17.90;99.90;;;;;;4896893;29;20455;-72
2022/08/16 04:46:12;;;;;;;20.37;18.90;;;18.00;99.90;;;;;;4897606;29;20478;-73
2022/08/16 04:48:41;;;;;;;20.93;19.33;;;18.00;99.90;;;;;;4897772;29;20495;-71
2022/08/16 04:51:08;;;;;;;22.80;20.60;;;18.10;99.90;;;;;;4897486;29;20455;-71
2022/08/16 04:53:34;;;;;;;20.33;18.97;;;18.20;99.90;;;;;;4897163;29;20463;-79
2022/08/16 04:56:01;;;;;;;20.87;19.53;;;18.30;99.90;;;;;;4895326;29;20463;-74
2022/08/16 04:58:30;;;;;;;18.20;17.00;;;18.40;99.90;;;;;;4896127;29;20451;-72
2022/08/16 05:00:56;;;;;;;19.33;18.13;;;18.50;99.90;;;;;;4897197;29;20519;-74
2022/08/16 05:03:24;;;;;;;19.73;18.43;;;18.60;99.90;;;;;;4897155;29;20459;-73
2022/08/16 05:05:52;;;;;;;19.97;18.77;;;18.70;99.90;;;;;;4896860;29;20483;-74
2022/08/16 05:08:19;;;;;;;19.57;18.27;;;18.70;99.90;;;;;;4896959;29;20513;-75
2022/08/16 05:10:45;;;;;;;20.20;17.87;;;18.80;99.90;;;;;;4896909;29;20455;-76
2022/08/16 05:13:12;;;;;;;18.20;17.30;;;19.00;99.90;;;;;;4896903;29;20873;-76
2022/08/16 05:15:39;;;;;;;18.53;17.03;;;19.30;99.90;;;;;;4897079;29;20455;-75
2022/08/16 05:18:05;;;;;;;17.47;16.53;;;19.50;99.90;;;;;;4896801;29;20459;-76
2022/08/16 05:20:32;;;;;;;19.17;17.53;;;19.50;99.90;;;;;;4896703;29;20454;-76
2022/08/16 05:23:00;;;;;;;19.53;17.77;;;19.60;99.90;;;;;;4896674;29;20458;-76
2022/08/16 05:25:27;;;;;;;16.63;15.80;;;19.60;99.90;;;;;;4896772;29;20455;-75
2022/08/16 05:27:54;;;;;;;17.40;16.33;;;19.50;99.90;;;;;;4895092;29;20518;-75
2022/08/16 05:30:21;;;;;;;17.53;16.63;;;19.50;99.90;;;;;;4896408;29;20456;-75
2022/08/16 05:32:48;;;;;;;17.53;16.30;;;19.40;99.90;;;;;;4896499;29;20616;-75
2022/08/16 05:35:15;;;;;;;17.43;16.40;;;19.40;99.90;;;;;;4896555;29;20447;-76
2022/08/16 05:37:43;;;;;;;17.47;16.20;;;19.50;99.90;;;;;;4896670;29;20823;-77
2022/08/16 05:40:13;;;;;;;17.00;16.10;;;19.40;99.90;;;;;;4896656;29;20466;-74
2022/08/16 05:42:40;;;;;;;17.03;16.13;;;19.50;99.90;;;;;;4893024;29;20460;-75
2022/08/16 05:45:07;;;;;;;17.33;16.03;;;19.50;99.90;;;;;;4896224;29;20828;-76
2022/08/16 05:47:34;;;;;;;16.00;15.13;;;20.00;99.90;;;;;;4896020;29;20491;-78
2022/08/16 05:50:01;;;;;;;18.90;16.40;;;19.60;99.90;;;;;;4895735;29;20452;-75
2022/08/16 05:52:28;;;;;;;15.40;14.60;;;19.70;99.90;;;;;;4895695;29;20459;-75
2022/08/16 05:54:55;;;;;;;17.33;16.33;;;19.80;99.90;;;;;;4895853;29;20455;-75
2022/08/16 05:57:23;;;;;;;17.30;16.07;;;19.90;99.90;;;;;;4895749;29;20469;-75
2022/08/16 05:59:50;;;;;;;18.73;17.13;;;20.00;99.90;;;;;;4895627;29;20964;-75
2022/08/16 06:02:17;;;;;;;17.43;16.50;;;20.10;99.90;;;;;;4895779;29;20858;-75
2022/08/16 06:04:44;;;;;;;17.10;16.20;;;20.10;99.90;;;;;;4895560;29;20474;-76
2022/08/16 06:07:11;;;;;;;16.80;15.80;;;20.30;99.90;;;;;;4895433;29;20494;-76
2022/08/16 06:09:38;;;;;;;15.47;14.43;;;20.40;99.90;;;;;;4895712;29;20466;-76
2022/08/16 06:12:05;;;;;;;17.63;16.80;;;20.50;99.90;;;;;;4895453;29;20958;-77
2022/08/16 06:14:33;;;;;;;17.50;16.27;;;20.50;99.90;;;;;;4895369;29;20463;-76
2022/08/16 06:17:00;;;;;;;16.90;15.90;;;20.60;99.90;;;;;;4895374;29;20830;-76
2022/08/16 06:19:27;;;;;;;16.70;15.23;;;20.70;99.90;;;;;;4895117;29;20452;-76
2022/08/16 06:21:53;;;;;;;17.27;16.27;;;20.70;99.90;;;;;;4895467;29;20463;-77
2022/08/16 06:24:20;;;;;;;17.30;16.30;;;20.70;99.90;;;;;;4895331;29;20459;-81
2022/08/16 06:26:47;;;;;;;17.10;16.20;;;20.70;99.90;;;;;;4895403;29;20466;-81
2022/08/16 06:29:13;;;;;;;17.17;15.80;;;20.70;99.90;;;;;;4895136;29;20910;-81
2022/08/16 06:31:41;;;;;;;17.03;15.93;;;20.80;99.90;;;;;;4895344;29;20452;-81
2022/08/16 06:34:08;;;;;;;17.37;16.03;;;21.00;99.90;;;;;;4895727;29;20452;-71
2022/08/16 06:36:35;;;;;;;16.43;15.70;;;21.40;99.90;;;;;;4895406;29;20554;-72
2022/08/16 06:39:02;;;;;;;17.80;16.73;;;21.90;99.90;;;;;;4893184;29;20506;-73
2022/08/16 06:41:28;;;;;;;16.23;15.30;;;22.20;99.90;;;;;;4894923;29;21009;-72
2022/08/16 06:43:55;;;;;;;16.30;15.60;;;22.50;99.90;;;;;;4895186;29;20459;-72
2022/08/16 06:46:25;;;;;;;17.70;16.43;;;22.80;99.90;;;;;;4895091;29;20523;-72
2022/08/16 06:48:53;;;;;;;17.83;16.90;;;23.00;99.90;;;;;;4895079;29;20483;-72
2022/08/16 06:51:21;;;;;;;17.30;16.43;;;23.40;99.90;;;;;;4894889;29;20459;-72
2022/08/16 06:53:48;;;;;;;17.50;16.50;;;23.70;99.90;;;;;;4894879;29;20934;-72
2022/08/16 06:56:14;;;;;;;17.20;16.40;;;23.80;99.90;;;;;;4894809;29;20455;-72
2022/08/16 06:58:41;;;;;;;17.63;16.50;;;23.70;99.90;;;;;;4895045;29;20455;-72
2022/08/16 07:01:08;;;;;;;16.47;15.67;;;23.90;99.90;;;;;;4894598;29;20459;-72
2022/08/16 07:03:35;;;;;;;15.77;14.90;;;23.90;99.90;;;;;;4894254;29;20461;-72
2022/08/16 07:06:04;;;;;;;16.67;15.77;;;24.20;99.90;;;;;;4895089;29;20879;-73
2022/08/16 07:08:31;;;;;;;17.17;16.17;;;24.90;99.90;;;;;;4898210;29;20812;-72
2022/08/16 07:10:58;;;;;;;16.17;15.20;;;25.10;99.90;;;;;;4898454;29;20463;-72
2022/08/16 07:13:25;;;;;;;17.87;16.97;;;25.10;99.90;;;;;;4898543;29;21008;-72
2022/08/16 07:15:52;;;;;;;16.47;15.57;;;25.50;99.90;;;;;;4898411;29;20465;-72
2022/08/16 07:18:20;;;;;;;16.90;16.00;;;25.80;99.90;;;;;;4898183;29;20452;-72
2022/08/16 07:20:48;;;;;;;18.00;16.90;;;26.00;99.90;;;;;;4898187;29;20946;-73
2022/08/16 07:23:17;;;;;;;20.67;19.50;;;26.50;98.50;;;;;;4898179;29;20486;-72
2022/08/16 07:25:44;;;;;;;15.90;15.00;;;26.60;97.90;;;;;;4898251;29;20463;-72
2022/08/16 07:28:13;;;;;;;17.20;16.40;;;26.80;97.60;;;;;;4898098;29;20550;-71
2022/08/16 07:30:41;;;;;;;18.93;17.57;;;26.90;96.90;;;;;;4898179;29;20455;-72
2022/08/16 07:33:09;;;;;;;17.10;16.20;;;26.90;96.70;;;;;;4898123;29;20474;-72
2022/08/16 07:35:36;;;;;;;17.43;16.60;;;26.60;97.10;;;;;;4897700;29;20486;-72
2022/08/16 07:38:05;;;;;;;17.70;16.80;;;26.40;97.40;;;;;;4897795;29;20542;-71
2022/08/16 07:40:33;;;;;;;16.90;16.07;;;26.60;97.70;;;;;;4897731;29;20459;-73
2022/08/16 07:43:00;;;;;;;18.13;16.87;;;26.90;96.70;;;;;;4897379;29;20459;-72
2022/08/16 07:45:27;;;;;;;16.60;15.80;;;26.90;96.70;;;;;;4897054;29;20465;-72
2022/08/16 07:47:54;;;;;;;17.93;17.13;;;27.20;96.10;;;;;;4897323;29;21021;-71
2022/08/16 07:50:21;;;;;;;16.87;15.97;;;27.20;95.90;;;;;;4897051;29;20459;-72
2022/08/16 07:52:48;;;;;;;16.40;15.60;;;27.10;95.90;;;;;;4896856;29;20459;-72
2022/08/16 07:55:16;;;;;;;16.73;15.83;;;27.10;96.00;;;;;;4897043;29;20953;-71
2022/08/16 07:57:44;;;;;;;18.17;17.37;;;27.20;95.90;;;;;;4897098;29;20550;-72
2022/08/16 08:00:12;;;;;;;17.40;16.50;;;27.60;95.30;;;;;;4897007;29;20459;-72
2022/08/16 08:02:39;;;;;;;17.97;17.03;;;28.20;94.00;;;;;;4897210;29;20824;-72
2022/08/16 08:05:07;;;;;;;18.23;17.23;;;28.60;93.40;;;;;;4896741;29;20490;-72
2022/08/16 08:07:34;;;;;;;17.97;17.13;;;28.70;92.80;;;;;;4897017;29;20459;-72
2022/08/16 08:10:02;;;;;;;17.83;16.73;;;28.80;92.50;;;;;;4896791;29;20486;-72
2022/08/16 08:12:29;;;;;;;17.40;16.40;;;28.60;92.70;;;;;;4896764;29;20562;-71
2022/08/16 08:14:57;;;;;;;17.63;16.57;;;28.90;92.40;;;;;;4896895;29;20599;-72
2022/08/16 08:17:23;;;;;;;18.97;17.97;;;28.80;92.00;;;;;;4896032;29;20484;-72
2022/08/16 08:19:50;;;;;;;17.47;16.57;;;28.90;91.90;;;;;;4896716;29;20458;-71
2022/08/16 08:22:17;;;;;;;17.40;16.53;;;29.40;91.10;;;;;;4896775;29;20950;-72
2022/08/16 08:24:44;;;;;;;17.77;16.77;;;29.50;90.50;;;;;;4896609;29;20463;-71
2022/08/16 08:27:10;;;;;;;17.60;16.70;;;29.60;90.10;;;;;;4896878;29;20470;-73
2022/08/16 08:29:37;;;;;;;17.50;16.70;;;30.50;87.00;;;;;;4896527;29;20856;-72
2022/08/16 08:32:07;;;;;;;17.60;16.50;;;30.90;84.50;;;;;;4896663;29;20459;-72
2022/08/16 08:34:34;;;;;;;19.50;18.20;;;31.50;82.50;;;;;;4896508;29;20459;-72
2022/08/16 08:37:01;;;;;;;18.43;17.53;;;31.50;81.60;;;;;;4896566;29;20455;-72
2022/08/16 08:39:27;;;;;;;18.00;16.97;;;31.30;81.30;;;;;;4896422;29;20980;-72
2022/08/16 08:41:54;;;;;;;17.90;17.10;;;31.30;80.40;;;;;;4896550;29;20839;-72
2022/08/16 08:44:21;;;;;;;17.83;16.77;;;30.90;81.00;;;;;;4896407;29;20455;-72
2022/08/16 08:46:47;;;;;;;18.43;17.63;;;30.60;81.10;;;;;;4896381;29;20657;-72
2022/08/16 08:49:16;;;;;;;17.20;16.40;;;30.40;81.60;;;;;;4896254;29;20832;-72
2022/08/16 08:51:43;;;;;;;17.30;16.60;;;30.60;82.20;;;;;;4896193;29;20968;-72
2022/08/16 08:54:13;;;;;;;19.10;18.00;;;30.30;82.30;;;;;;4894488;29;20459;-73
2022/08/16 08:56:40;;;;;;;17.80;17.03;;;29.80;84.50;;;;;;4896846;29;20486;-73
2022/08/16 08:59:08;;;;;;;19.57;18.47;;;29.70;85.50;;;;;;4896535;29;20487;-73
2022/08/16 09:01:38;;;;;;;18.77;17.67;;;29.40;86.30;;;;;;4896257;29;20470;-74
2022/08/16 09:04:05;;;;;;;19.03;18.23;;;29.00;87.70;;;;;;4896203;29;20487;-74
2022/08/16 09:06:34;;;;;;;19.70;18.67;;;29.40;85.80;;;;;;4896270;29;20483;-74
2022/08/16 09:09:02;;;;;;;18.50;17.50;;;30.20;83.50;;;;;;4896249;29;20495;-72
2022/08/16 09:11:28;;;;;;;19.23;17.90;;;30.80;81.70;;;;;;4896216;29;20518;-72
2022/08/16 09:13:55;;;;;;;19.33;18.47;;;31.70;78.20;;;;;;4896361;29;21285;-71
2022/08/16 09:16:22;;;;;;;18.23;17.43;;;31.50;78.00;;;;;;4896307;29;20463;-72
2022/08/16 09:18:49;;;;;;;18.50;17.60;;;30.40;81.20;;;;;;4896191;29;20455;-72
2022/08/16 09:21:15;;;;;;;18.93;18.10;;;29.60;84.20;;;;;;4896111;29;20455;-72
2022/08/16 09:23:44;;;;;;;18.17;17.17;;;29.70;83.70;;;;;;4896195;29;20487;-71
2022/08/16 09:26:14;;;;;;;17.70;16.90;;;29.40;84.50;;;;;;4896178;29;20511;-71
2022/08/16 09:28:41;;;;;;;18.03;17.10;;;29.30;84.90;;;;;;4895883;29;20499;-70
2022/08/16 09:31:09;;;;;;;20.07;18.30;;;29.50;84.30;;;;;;4896534;29;20463;-71
2022/08/16 09:33:35;;;;;;;17.90;17.10;;;29.30;85.40;;;;;;4896247;29;20474;-71
2022/08/16 09:36:02;;;;;;;19.67;18.30;;;29.10;85.70;;;;;;4896155;29;20463;-71
2022/08/16 09:38:29;;;;;;;19.20;18.20;;;28.70;86.80;;;;;;4896265;29;20463;-71
2022/08/16 09:40:57;;;;;;;20.03;18.63;;;28.60;88.40;;;;;;4896310;29;20523;-71
2022/08/16 09:43:24;;;;;;;18.20;17.20;;;29.60;88.30;;;;;;4896354;29;20466;-72
2022/08/16 09:45:51;;;;;;;17.20;16.50;;;29.00;87.00;;;;;;4896122;29;20494;-72
2022/08/16 09:48:18;;;;;;;18.43;17.33;;;29.30;85.90;;;;;;4894311;29;20459;-70
2022/08/16 09:50:45;;;;;;;19.73;18.53;;;29.10;86.90;;;;;;4895673;29;20451;-71
2022/08/16 09:53:15;;;;;;;18.57;17.37;;;28.20;88.00;;;;;;4895783;29;20703;-71
2022/08/16 09:55:46;;;;;;;19.33;18.27;;;28.00;90.30;;;;;;4893834;29;20463;-73
2022/08/16 09:58:15;;;;;;;17.20;16.40;;;28.10;89.30;;;;;;4892316;29;20934;-71
2022/08/16 10:00:42;;;;;;;18.27;17.47;;;28.30;89.20;;;;;;4895504;29;20549;-71
2022/08/16 10:03:09;;;;;;;18.97;17.80;;;28.40;88.70;;;;;;4895657;29;20466;-71
2022/08/16 10:05:36;;;;;;;18.10;17.30;;;29.60;86.10;;;;;;4895317;29;20479;-71
2022/08/16 10:08:04;;;;;;;19.43;18.63;;;31.90;78.10;;;;;;4895356;29;20455;-71
2022/08/16 10:10:30;;;;;;;18.40;17.60;;;33.40;71.60;;;;;;4895158;29;20755;-71
2022/08/16 10:13:13;;;;;;;19.00;18.00;;;32.80;71.50;;;;;;4895258;29;20455;-71
2022/08/16 10:15:43;;;;;;;18.63;17.83;;;31.40;74.10;;;;;;4895612;29;20542;-71
2022/08/16 10:18:11;;;;;;;19.20;18.30;;;31.00;76.80;;;;;;4895537;29;20455;-72
2022/08/16 10:20:42;;;;;;;19.30;18.30;;;31.10;76.70;;;;;;4895385;29;20447;-71
2022/08/16 10:23:10;;;;;;;18.17;17.17;;;31.10;74.90;;;;;;4893555;29;20451;-71
2022/08/16 10:25:39;;;;;;;18.23;17.33;;;30.50;77.20;;;;;;4895364;29;20482;-72
2022/08/16 10:28:06;;;;;;;19.50;18.40;;;30.80;76.40;;;;;;4895180;29;20466;-71
2022/08/16 10:30:33;;;;;;;19.87;18.40;;;30.90;74.70;;;;;;4894846;29;20527;-71
2022/08/16 10:33:02;;;;;;;17.87;16.97;;;31.00;75.00;;;;;;4895004;29;20499;-71
2022/08/16 10:35:29;;;;;;;22.03;18.90;;;31.00;73.70;;;;;;4894965;29;20467;-71
2022/08/16 10:37:55;;;;;;;17.93;16.90;;;30.80;74.30;;;;;;4895020;29;20462;-71
2022/08/16 10:40:22;;;;;;;17.90;17.00;;;31.00;73.00;;;;;;4894245;29;20452;-71
2022/08/16 10:42:49;;;;;;;17.53;16.63;;;30.70;73.70;;;;;;4894905;29;20455;-71
2022/08/16 10:45:16;;;;;;;18.17;17.20;;;30.70;74.10;;;;;;4894741;29;20730;-71
2022/08/16 10:47:43;;;;;;;18.00;17.00;;;31.00;73.40;;;;;;4894881;29;20459;-71
2022/08/16 10:50:12;;;;;;;17.93;17.13;;;31.30;73.10;;;;;;4895017;29;20499;-72
2022/08/16 10:52:39;;;;;;;17.40;16.50;;;31.60;72.20;;;;;;4895199;29;20458;-72
2022/08/16 10:55:11;;;;;;;18.43;17.63;;;31.70;71.60;;;;;;4894883;29;20474;-72
2022/08/16 10:57:38;;;;;;;18.83;17.80;;;31.80;72.10;;;;;;4895107;29;21086;-72
2022/08/16 11:00:08;;;;;;;19.80;18.40;;;31.60;72.30;;;;;;4894683;29;20459;-72
2022/08/16 11:02:35;;;;;;;18.17;17.37;;;31.70;71.50;;;;;;4894830;29;20859;-71
2022/08/16 11:05:03;;;;;;;18.50;17.60;;;32.10;69.60;;;;;;4894724;29;20479;-72
2022/08/16 11:07:31;;;;;;;20.07;18.90;;;32.30;68.50;;;;;;4894500;29;20845;-71
2022/08/16 11:10:00;;;;;;;18.87;17.60;;;32.70;67.50;;;;;;4894679;29;20498;-72
2022/08/16 11:12:27;;;;;;;18.63;17.53;;;32.70;68.10;;;;;;4894673;29;20495;-72
2022/08/16 11:14:54;;;;;;;18.90;18.10;;;32.70;67.10;;;;;;4894988;29;20465;-72
2022/08/16 11:17:21;;;;;;;19.20;18.37;;;32.80;67.30;;;;;;4894790;29;20487;-72
2022/08/16 11:19:48;;;;;;;20.30;19.20;;;33.70;65.00;;;;;;4894774;29;20447;-72
2022/08/16 11:22:15;;;;;;;19.33;18.43;;;34.90;60.60;;;;;;4894576;29;20515;-72
2022/08/16 11:24:43;;;;;;;19.67;18.40;;;35.20;58.30;;;;;;4894739;29;20468;-72
2022/08/16 11:27:12;;;;;;;18.17;17.37;;;34.40;59.70;;;;;;4894708;29;20461;-72
2022/08/16 11:29:39;;;;;;;18.03;17.13;;;35.00;58.50;;;;;;4894654;29;20502;-72
2022/08/16 11:32:06;;;;;;;18.60;17.80;;;36.00;55.80;;;;;;4893054;29;20455;-72
2022/08/16 11:34:33;;;;;;;18.43;17.63;;;35.00;55.90;;;;;;4894260;29;20471;-72
2022/08/16 11:37:00;;;;;;;18.63;17.50;;;34.70;56.30;;;;;;4894425;29;20455;-72
2022/08/16 11:39:27;;;;;;;18.60;17.80;;;33.80;57.60;;;;;;4894497;29;20463;-71
2022/08/16 11:41:56;;;;;;;18.67;17.87;;;33.20;59.30;;;;;;4894726;29;20483;-71
2022/08/16 11:44:24;;;;;;;18.93;17.60;;;32.80;59.80;;;;;;4894612;29;20821;-72
2022/08/16 11:46:50;;;;;;;17.57;16.57;;;33.30;59.60;;;;;;4894456;29;20455;-71
2022/08/16 11:49:17;;;;;;;19.23;18.17;;;33.30;58.00;;;;;;4894366;29;20483;-72
2022/08/16 11:51:44;;;;;;;18.60;17.60;;;33.90;57.30;;;;;;4894961;29;20803;-71
2022/08/16 11:54:12;;;;;;;18.10;17.30;;;34.50;56.40;;;;;;4897991;29;20459;-72
2022/08/16 11:56:39;;;;;;;17.90;17.20;;;34.00;57.00;;;;;;4897918;29;20465;-71
2022/08/16 11:59:07;;;;;;;18.80;17.73;;;34.00;57.30;;;;;;4897694;29;20774;-71
2022/08/16 12:01:34;;;;;;;20.00;18.80;;;35.00;55.50;;;;;;4897570;29;20467;-72
2022/08/16 12:04:01;;;;;;;18.40;17.40;;;35.50;54.10;;;;;;4897622;29;20462;-72
2022/08/16 12:06:28;;;;;;;18.47;17.53;;;35.90;52.60;;;;;;4897206;29;20494;-72
2022/08/16 12:08:56;;;;;;;18.63;17.33;;;36.10;52.30;;;;;;4897702;29;20467;-72
2022/08/16 12:11:25;;;;;;;18.70;17.90;;;36.70;51.20;;;;;;4897463;29;20487;-72
2022/08/16 12:13:53;;;;;;;18.73;17.93;;;37.50;50.10;;;;;;4897439;29;20487;-72
2022/08/16 12:16:21;;;;;;;19.67;18.87;;;38.30;48.70;;;;;;4897355;29;20856;-73
2022/08/16 12:18:48;;;;;;;18.03;17.10;;;38.00;47.90;;;;;;4897198;29;20470;-73
2022/08/16 12:21:16;;;;;;;18.70;17.90;;;36.80;48.50;;;;;;4897150;29;20462;-72
2022/08/16 12:23:43;;;;;;;18.53;17.67;;;35.10;50.90;;;;;;4897273;29;20470;-72
2022/08/16 12:26:09;;;;;;;18.03;17.20;;;34.50;52.50;;;;;;4897483;29;20463;-72
2022/08/16 12:28:36;;;;;;;18.67;17.77;;;33.70;53.40;;;;;;4897098;29;20462;-73
2022/08/16 12:31:03;;;;;;;17.80;17.00;;;33.60;54.40;;;;;;4897055;29;20497;-72